sensor_id;sensor_type;location;lat;lon;timestamp;P1;durP1;ratioP1;P2;durP2;ratioP2
63110;SDS011;49201;53.426;10.300;2023-02-28T00:01:08;7.73;;;4.43;;
63110;SDS011;49201;53.426;10.300;2023-02-28T00:03:33;8.80;;;4.27;;
63110;SDS011;49201;53.426;10.300;2023-02-28T00:06:00;6.67;;;4.27;;
63110;SDS011;49201;53.426;10.300;2023-02-28T00:08:27;7.20;;;4.23;;
63110;SDS011;49201;53.426;10.300;2023-02-28T00:10:53;7.77;;;4.30;;
63110;SDS011;49201;53.426;10.300;2023-02-28T00:13:18;12.90;;;4.53;;
63110;SDS011;49201;53.426;10.300;2023-02-28T00:15:44;8.20;;;4.80;;
63110;SDS011;49201;53.426;10.300;2023-02-28T00:18:10;7.20;;;4.33;;
63110;SDS011;49201;53.426;10.300;2023-02-28T00:20:36;8.20;;;4.23;;
63110;SDS011;49201;53.426;10.300;2023-02-28T00:23:02;6.03;;;4.50;;
63110;SDS011;49201;53.426;10.300;2023-02-28T00:25:28;10.40;;;4.30;;
63110;SDS011;49201;53.426;10.300;2023-02-28T00:27:53;9.07;;;4.73;;
63110;SDS011;49201;53.426;10.300;2023-02-28T00:30:20;8.53;;;4.50;;
63110;SDS011;49201;53.426;10.300;2023-02-28T00:32:47;7.23;;;4.97;;
63110;SDS011;49201;53.426;10.300;2023-02-28T00:35:13;7.77;;;4.37;;
63110;SDS011;49201;53.426;10.300;2023-02-28T00:37:40;8.23;;;4.30;;
63110;SDS011;49201;53.426;10.300;2023-02-28T00:40:06;10.93;;;4.77;;
63110;SDS011;49201;53.426;10.300;2023-02-28T00:42:36;9.80;;;4.93;;
63110;SDS011;49201;53.426;10.300;2023-02-28T00:45:01;8.90;;;4.50;;
63110;SDS011;49201;53.426;10.300;2023-02-28T00:47:29;9.40;;;4.57;;
63110;SDS011;49201;53.426;10.300;2023-02-28T00:49:55;8.83;;;4.93;;
63110;SDS011;49201;53.426;10.300;2023-02-28T00:52:20;9.20;;;5.07;;
63110;SDS011;49201;53.426;10.300;2023-02-28T00:54:46;10.10;;;5.50;;
63110;SDS011;49201;53.426;10.300;2023-02-28T00:57:13;7.30;;;5.10;;
63110;SDS011;49201;53.426;10.300;2023-02-28T00:59:39;7.50;;;5.20;;
63110;SDS011;49201;53.426;10.300;2023-02-28T01:02:05;8.20;;;5.00;;
63110;SDS011;49201;53.426;10.300;2023-02-28T01:04:30;8.13;;;4.67;;
63110;SDS011;49201;53.426;10.300;2023-02-28T01:06:59;7.90;;;4.90;;
63110;SDS011;49201;53.426;10.300;2023-02-28T01:09:24;7.70;;;5.23;;
63110;SDS011;49201;53.426;10.300;2023-02-28T01:11:50;9.50;;;4.87;;
63110;SDS011;49201;53.426;10.300;2023-02-28T01:14:16;10.23;;;5.40;;
63110;SDS011;49201;53.426;10.300;2023-02-28T01:16:44;9.47;;;5.00;;
63110;SDS011;49201;53.426;10.300;2023-02-28T01:19:10;9.27;;;4.87;;
63110;SDS011;49201;53.426;10.300;2023-02-28T01:21:37;12.53;;;5.20;;
63110;SDS011;49201;53.426;10.300;2023-02-28T01:24:03;10.03;;;4.73;;
63110;SDS011;49201;53.426;10.300;2023-02-28T01:26:30;8.27;;;4.60;;
63110;SDS011;49201;53.426;10.300;2023-02-28T01:28:55;6.93;;;4.60;;
63110;SDS011;49201;53.426;10.300;2023-02-28T01:31:21;7.40;;;4.60;;
63110;SDS011;49201;53.426;10.300;2023-02-28T01:33:47;8.87;;;4.93;;
63110;SDS011;49201;53.426;10.300;2023-02-28T01:36:17;9.13;;;4.93;;
63110;SDS011;49201;53.426;10.300;2023-02-28T01:38:45;7.20;;;4.80;;
63110;SDS011;49201;53.426;10.300;2023-02-28T01:41:21;11.77;;;5.67;;
63110;SDS011;49201;53.426;10.300;2023-02-28T01:46:59;8.03;;;5.30;;
63110;SDS011;49201;53.426;10.300;2023-02-28T01:49:24;10.37;;;5.50;;
63110;SDS011;49201;53.426;10.300;2023-02-28T01:51:53;8.97;;;5.20;;
63110;SDS011;49201;53.426;10.300;2023-02-28T01:54:27;9.37;;;5.53;;
63110;SDS011;49201;53.426;10.300;2023-02-28T01:56:57;10.13;;;5.60;;
63110;SDS011;49201;53.426;10.300;2023-02-28T01:59:31;10.10;;;5.73;;
63110;SDS011;49201;53.426;10.300;2023-02-28T02:02:01;10.97;;;6.23;;
63110;SDS011;49201;53.426;10.300;2023-02-28T02:04:30;7.67;;;5.60;;
63110;SDS011;49201;53.426;10.300;2023-02-28T02:07:01;10.63;;;6.60;;
63110;SDS011;49201;53.426;10.300;2023-02-28T02:09:28;11.67;;;6.40;;
63110;SDS011;49201;53.426;10.300;2023-02-28T02:11:53;9.77;;;5.97;;
63110;SDS011;49201;53.426;10.300;2023-02-28T02:20:17;9.60;;;6.33;;
63110;SDS011;49201;53.426;10.300;2023-02-28T02:37:35;11.13;;;6.97;;
63110;SDS011;49201;53.426;10.300;2023-02-28T02:40:19;10.60;;;6.83;;
63110;SDS011;49201;53.426;10.300;2023-02-28T02:43:04;12.13;;;6.33;;
63110;SDS011;49201;53.426;10.300;2023-02-28T02:45:37;10.00;;;6.40;;
63110;SDS011;49201;53.426;10.300;2023-02-28T02:48:07;11.07;;;7.07;;
63110;SDS011;49201;53.426;10.300;2023-02-28T02:50:38;12.53;;;6.63;;
63110;SDS011;49201;53.426;10.300;2023-02-28T02:53:09;13.93;;;7.47;;
63110;SDS011;49201;53.426;10.300;2023-02-28T02:55:42;10.13;;;6.40;;
63110;SDS011;49201;53.426;10.300;2023-02-28T02:58:16;10.17;;;6.87;;
63110;SDS011;49201;53.426;10.300;2023-02-28T03:00:45;12.23;;;6.70;;
63110;SDS011;49201;53.426;10.300;2023-02-28T03:03:16;9.83;;;6.57;;
63110;SDS011;49201;53.426;10.300;2023-02-28T03:05:49;12.50;;;7.40;;
63110;SDS011;49201;53.426;10.300;2023-02-28T03:08:16;10.10;;;6.60;;
63110;SDS011;49201;53.426;10.300;2023-02-28T03:10:42;11.13;;;6.40;;
63110;SDS011;49201;53.426;10.300;2023-02-28T03:13:26;13.13;;;7.23;;
63110;SDS011;49201;53.426;10.300;2023-02-28T03:21:56;12.53;;;7.07;;
63110;SDS011;49201;53.426;10.300;2023-02-28T03:24:34;13.73;;;6.53;;
63110;SDS011;49201;53.426;10.300;2023-02-28T03:27:29;11.63;;;6.10;;
63110;SDS011;49201;53.426;10.300;2023-02-28T03:30:03;9.53;;;6.23;;
63110;SDS011;49201;53.426;10.300;2023-02-28T03:35:34;8.37;;;5.60;;
63110;SDS011;49201;53.426;10.300;2023-02-28T03:38:13;8.67;;;6.47;;
63110;SDS011;49201;53.426;10.300;2023-02-28T03:40:45;8.33;;;5.77;;
63110;SDS011;49201;53.426;10.300;2023-02-28T03:43:18;11.90;;;6.33;;
63110;SDS011;49201;53.426;10.300;2023-02-28T03:45:49;9.57;;;6.20;;
63110;SDS011;49201;53.426;10.300;2023-02-28T03:48:18;10.10;;;6.73;;
63110;SDS011;49201;53.426;10.300;2023-02-28T03:50:49;9.67;;;5.80;;
63110;SDS011;49201;53.426;10.300;2023-02-28T03:53:20;9.70;;;6.17;;
63110;SDS011;49201;53.426;10.300;2023-02-28T03:55:54;11.97;;;6.53;;
63110;SDS011;49201;53.426;10.300;2023-02-28T03:58:27;9.73;;;6.40;;
63110;SDS011;49201;53.426;10.300;2023-02-28T04:00:59;8.20;;;5.90;;
63110;SDS011;49201;53.426;10.300;2023-02-28T04:03:36;10.67;;;6.10;;
63110;SDS011;49201;53.426;10.300;2023-02-28T04:06:03;9.33;;;6.10;;
63110;SDS011;49201;53.426;10.300;2023-02-28T04:08:30;9.47;;;6.23;;
63110;SDS011;49201;53.426;10.300;2023-02-28T04:10:58;11.73;;;6.67;;
63110;SDS011;49201;53.426;10.300;2023-02-28T04:13:29;9.33;;;6.23;;
63110;SDS011;49201;53.426;10.300;2023-02-28T04:15:54;7.77;;;5.90;;
63110;SDS011;49201;53.426;10.300;2023-02-28T04:18:20;10.97;;;6.33;;
63110;SDS011;49201;53.426;10.300;2023-02-28T04:20:45;7.33;;;5.77;;
63110;SDS011;49201;53.426;10.300;2023-02-28T04:23:11;11.00;;;6.20;;
63110;SDS011;49201;53.426;10.300;2023-02-28T04:25:36;8.70;;;5.97;;
63110;SDS011;49201;53.426;10.300;2023-02-28T04:28:01;12.17;;;7.37;;
63110;SDS011;49201;53.426;10.300;2023-02-28T04:30:27;12.03;;;7.03;;
63110;SDS011;49201;53.426;10.300;2023-02-28T04:32:52;9.13;;;6.43;;
63110;SDS011;49201;53.426;10.300;2023-02-28T04:35:18;10.97;;;6.63;;
63110;SDS011;49201;53.426;10.300;2023-02-28T04:37:43;8.87;;;6.20;;
63110;SDS011;49201;53.426;10.300;2023-02-28T04:40:08;8.80;;;6.50;;
63110;SDS011;49201;53.426;10.300;2023-02-28T04:42:34;10.13;;;6.67;;
63110;SDS011;49201;53.426;10.300;2023-02-28T04:45:03;12.07;;;6.90;;
63110;SDS011;49201;53.426;10.300;2023-02-28T04:47:29;11.13;;;6.43;;
63110;SDS011;49201;53.426;10.300;2023-02-28T04:49:55;9.77;;;7.13;;
63110;SDS011;49201;53.426;10.300;2023-02-28T04:52:21;11.70;;;7.17;;
63110;SDS011;49201;53.426;10.300;2023-02-28T04:54:47;15.90;;;8.13;;
63110;SDS011;49201;53.426;10.300;2023-02-28T04:57:12;13.40;;;7.83;;
63110;SDS011;49201;53.426;10.300;2023-02-28T04:59:38;11.73;;;8.53;;
63110;SDS011;49201;53.426;10.300;2023-02-28T05:02:03;12.20;;;7.57;;
63110;SDS011;49201;53.426;10.300;2023-02-28T05:04:34;12.57;;;7.33;;
63110;SDS011;49201;53.426;10.300;2023-02-28T05:07:00;9.63;;;7.00;;
63110;SDS011;49201;53.426;10.300;2023-02-28T05:09:28;13.13;;;6.90;;
63110;SDS011;49201;53.426;10.300;2023-02-28T05:11:54;11.23;;;6.87;;
63110;SDS011;49201;53.426;10.300;2023-02-28T05:14:20;12.33;;;7.10;;
63110;SDS011;49201;53.426;10.300;2023-02-28T05:16:45;11.07;;;7.27;;
63110;SDS011;49201;53.426;10.300;2023-02-28T05:19:11;11.53;;;7.20;;
63110;SDS011;49201;53.426;10.300;2023-02-28T05:24:05;12.63;;;7.60;;
63110;SDS011;49201;53.426;10.300;2023-02-28T05:26:34;13.43;;;7.63;;
63110;SDS011;49201;53.426;10.300;2023-02-28T05:29:01;11.13;;;7.13;;
63110;SDS011;49201;53.426;10.300;2023-02-28T05:31:27;12.93;;;8.73;;
63110;SDS011;49201;53.426;10.300;2023-02-28T05:33:52;14.80;;;9.13;;
63110;SDS011;49201;53.426;10.300;2023-02-28T05:36:18;13.23;;;7.90;;
63110;SDS011;49201;53.426;10.300;2023-02-28T05:38:45;14.40;;;9.10;;
63110;SDS011;49201;53.426;10.300;2023-02-28T05:41:13;16.83;;;9.07;;
63110;SDS011;49201;53.426;10.300;2023-02-28T05:43:39;13.20;;;8.43;;
63110;SDS011;49201;53.426;10.300;2023-02-28T05:46:05;12.87;;;7.73;;
63110;SDS011;49201;53.426;10.300;2023-02-28T05:48:32;14.10;;;8.70;;
63110;SDS011;49201;53.426;10.300;2023-02-28T05:50:58;16.40;;;8.50;;
63110;SDS011;49201;53.426;10.300;2023-02-28T05:53:24;11.37;;;7.57;;
63110;SDS011;49201;53.426;10.300;2023-02-28T05:55:49;13.40;;;7.67;;
63110;SDS011;49201;53.426;10.300;2023-02-28T05:58:15;13.83;;;8.20;;
63110;SDS011;49201;53.426;10.300;2023-02-28T06:00:40;12.70;;;8.40;;
63110;SDS011;49201;53.426;10.300;2023-02-28T06:03:05;11.07;;;7.43;;
63110;SDS011;49201;53.426;10.300;2023-02-28T06:05:31;11.43;;;7.47;;
63110;SDS011;49201;53.426;10.300;2023-02-28T06:07:57;13.37;;;7.90;;
63110;SDS011;49201;53.426;10.300;2023-02-28T06:10:22;11.47;;;7.50;;
63110;SDS011;49201;53.426;10.300;2023-02-28T06:12:48;11.40;;;7.37;;
63110;SDS011;49201;53.426;10.300;2023-02-28T06:15:13;11.43;;;7.70;;
63110;SDS011;49201;53.426;10.300;2023-02-28T06:17:40;12.33;;;8.47;;
63110;SDS011;49201;53.426;10.300;2023-02-28T06:20:07;12.53;;;8.00;;
63110;SDS011;49201;53.426;10.300;2023-02-28T06:22:34;10.87;;;7.83;;
63110;SDS011;49201;53.426;10.300;2023-02-28T06:25:03;11.83;;;7.37;;
63110;SDS011;49201;53.426;10.300;2023-02-28T06:27:30;13.60;;;7.20;;
63110;SDS011;49201;53.426;10.300;2023-02-28T06:29:56;12.57;;;7.97;;
63110;SDS011;49201;53.426;10.300;2023-02-28T06:32:21;11.43;;;7.27;;
63110;SDS011;49201;53.426;10.300;2023-02-28T06:34:47;12.00;;;7.50;;
63110;SDS011;49201;53.426;10.300;2023-02-28T06:37:12;11.13;;;7.43;;
63110;SDS011;49201;53.426;10.300;2023-02-28T06:39:38;9.63;;;6.93;;
63110;SDS011;49201;53.426;10.300;2023-02-28T06:42:04;12.17;;;8.07;;
63110;SDS011;49201;53.426;10.300;2023-02-28T06:44:29;13.97;;;7.33;;
63110;SDS011;49201;53.426;10.300;2023-02-28T06:47:00;14.97;;;7.47;;
63110;SDS011;49201;53.426;10.300;2023-02-28T06:49:28;11.73;;;7.50;;
63110;SDS011;49201;53.426;10.300;2023-02-28T06:51:57;11.17;;;7.70;;
63110;SDS011;49201;53.426;10.300;2023-02-28T06:54:23;12.37;;;6.97;;
63110;SDS011;49201;53.426;10.300;2023-02-28T06:56:48;11.83;;;7.83;;
63110;SDS011;49201;53.426;10.300;2023-02-28T06:59:14;13.37;;;8.00;;
63110;SDS011;49201;53.426;10.300;2023-02-28T07:01:40;13.03;;;8.00;;
63110;SDS011;49201;53.426;10.300;2023-02-28T07:04:05;12.33;;;8.03;;
63110;SDS011;49201;53.426;10.300;2023-02-28T07:06:32;13.60;;;9.13;;
63110;SDS011;49201;53.426;10.300;2023-02-28T07:08:57;15.77;;;9.90;;
63110;SDS011;49201;53.426;10.300;2023-02-28T07:11:26;14.87;;;9.93;;
63110;SDS011;49201;53.426;10.300;2023-02-28T07:13:55;13.93;;;9.97;;
63110;SDS011;49201;53.426;10.300;2023-02-28T07:16:22;15.33;;;11.50;;
63110;SDS011;49201;53.426;10.300;2023-02-28T07:18:48;16.80;;;11.07;;
63110;SDS011;49201;53.426;10.300;2023-02-28T07:21:14;13.70;;;9.90;;
63110;SDS011;49201;53.426;10.300;2023-02-28T07:23:40;17.40;;;10.00;;
63110;SDS011;49201;53.426;10.300;2023-02-28T07:26:07;13.40;;;9.43;;
63110;SDS011;49201;53.426;10.300;2023-02-28T07:28:37;15.50;;;8.70;;
63110;SDS011;49201;53.426;10.300;2023-02-28T07:31:06;13.37;;;8.23;;
63110;SDS011;49201;53.426;10.300;2023-02-28T07:33:32;12.43;;;8.90;;
63110;SDS011;49201;53.426;10.300;2023-02-28T07:36:03;10.53;;;8.07;;
63110;SDS011;49201;53.426;10.300;2023-02-28T07:38:34;10.83;;;7.77;;
63110;SDS011;49201;53.426;10.300;2023-02-28T07:41:00;10.63;;;7.80;;
63110;SDS011;49201;53.426;10.300;2023-02-28T07:43:29;12.37;;;8.10;;
63110;SDS011;49201;53.426;10.300;2023-02-28T07:46:01;12.80;;;8.10;;
63110;SDS011;49201;53.426;10.300;2023-02-28T07:48:27;13.03;;;7.83;;
63110;SDS011;49201;53.426;10.300;2023-02-28T07:50:56;10.47;;;7.47;;
63110;SDS011;49201;53.426;10.300;2023-02-28T07:53:21;11.93;;;8.13;;
63110;SDS011;49201;53.426;10.300;2023-02-28T07:55:47;13.37;;;7.87;;
63110;SDS011;49201;53.426;10.300;2023-02-28T07:58:12;9.30;;;7.77;;
63110;SDS011;49201;53.426;10.300;2023-02-28T08:00:38;11.03;;;7.80;;
63110;SDS011;49201;53.426;10.300;2023-02-28T08:03:03;12.73;;;7.80;;
63110;SDS011;49201;53.426;10.300;2023-02-28T08:05:29;13.63;;;7.93;;
63110;SDS011;49201;53.426;10.300;2023-02-28T08:07:55;10.53;;;7.33;;
63110;SDS011;49201;53.426;10.300;2023-02-28T08:10:22;12.63;;;7.83;;
63110;SDS011;49201;53.426;10.300;2023-02-28T08:12:48;10.80;;;6.83;;
63110;SDS011;49201;53.426;10.300;2023-02-28T08:15:14;11.97;;;7.13;;
63110;SDS011;49201;53.426;10.300;2023-02-28T08:17:40;10.17;;;6.90;;
63110;SDS011;49201;53.426;10.300;2023-02-28T08:20:05;10.60;;;6.07;;
63110;SDS011;49201;53.426;10.300;2023-02-28T08:22:31;8.90;;;7.33;;
63110;SDS011;49201;53.426;10.300;2023-02-28T08:24:57;10.13;;;6.33;;
63110;SDS011;49201;53.426;10.300;2023-02-28T08:27:22;8.47;;;6.73;;
63110;SDS011;49201;53.426;10.300;2023-02-28T08:29:47;8.57;;;6.57;;
63110;SDS011;49201;53.426;10.300;2023-02-28T08:32:13;9.27;;;6.57;;
63110;SDS011;49201;53.426;10.300;2023-02-28T08:34:39;11.37;;;7.73;;
63110;SDS011;49201;53.426;10.300;2023-02-28T08:37:05;10.07;;;6.63;;
63110;SDS011;49201;53.426;10.300;2023-02-28T08:39:30;8.50;;;5.97;;
63110;SDS011;49201;53.426;10.300;2023-02-28T08:41:59;8.63;;;5.73;;
63110;SDS011;49201;53.426;10.300;2023-02-28T08:44:24;8.47;;;5.87;;
63110;SDS011;49201;53.426;10.300;2023-02-28T08:46:50;7.47;;;5.50;;
63110;SDS011;49201;53.426;10.300;2023-02-28T08:49:15;7.23;;;5.53;;
63110;SDS011;49201;53.426;10.300;2023-02-28T08:51:41;7.20;;;5.53;;
63110;SDS011;49201;53.426;10.300;2023-02-28T08:54:07;6.93;;;5.70;;
63110;SDS011;49201;53.426;10.300;2023-02-28T08:56:33;7.97;;;5.30;;
63110;SDS011;49201;53.426;10.300;2023-02-28T08:58:59;9.03;;;5.60;;
63110;SDS011;49201;53.426;10.300;2023-02-28T09:01:27;7.37;;;4.67;;
63110;SDS011;49201;53.426;10.300;2023-02-28T09:03:54;8.23;;;4.50;;
63110;SDS011;49201;53.426;10.300;2023-02-28T09:06:21;8.77;;;4.77;;
63110;SDS011;49201;53.426;10.300;2023-02-28T09:08:49;5.20;;;4.30;;
63110;SDS011;49201;53.426;10.300;2023-02-28T09:11:15;5.87;;;4.83;;
63110;SDS011;49201;53.426;10.300;2023-02-28T09:13:41;5.83;;;4.63;;
63110;SDS011;49201;53.426;10.300;2023-02-28T09:16:08;8.63;;;5.03;;
63110;SDS011;49201;53.426;10.300;2023-02-28T09:18:37;6.97;;;4.53;;
63110;SDS011;49201;53.426;10.300;2023-02-28T09:21:04;5.77;;;4.03;;
63110;SDS011;49201;53.426;10.300;2023-02-28T09:23:30;5.40;;;4.88;;
63110;SDS011;49201;53.426;10.300;2023-02-28T09:25:56;5.40;;;4.60;;
63110;SDS011;49201;53.426;10.300;2023-02-28T09:28:21;4.95;;;4.45;;
63110;SDS011;49201;53.426;10.300;2023-02-28T09:30:49;5.72;;;4.15;;
63110;SDS011;49201;53.426;10.300;2023-02-28T09:33:17;4.75;;;4.05;;
63110;SDS011;49201;53.426;10.300;2023-02-28T09:35:45;5.65;;;4.68;;
63110;SDS011;49201;53.426;10.300;2023-02-28T09:38:12;4.40;;;4.00;;
63110;SDS011;49201;53.426;10.300;2023-02-28T09:40:39;4.50;;;4.10;;
63110;SDS011;49201;53.426;10.300;2023-02-28T09:43:12;5.10;;;4.07;;
63110;SDS011;49201;53.426;10.300;2023-02-28T09:45:40;5.72;;;3.95;;
63110;SDS011;49201;53.426;10.300;2023-02-28T09:48:23;4.60;;;3.90;;
63110;SDS011;49201;53.426;10.300;2023-02-28T09:50:59;4.22;;;3.83;;
63110;SDS011;49201;53.426;10.300;2023-02-28T09:53:30;4.20;;;3.80;;
63110;SDS011;49201;53.426;10.300;2023-02-28T09:56:01;4.40;;;3.65;;
63110;SDS011;49201;53.426;10.300;2023-02-28T09:58:35;5.15;;;3.78;;
63110;SDS011;49201;53.426;10.300;2023-02-28T10:01:09;4.30;;;3.50;;
63110;SDS011;49201;53.426;10.300;2023-02-28T10:03:56;4.18;;;2.60;;
63110;SDS011;49201;53.426;10.300;2023-02-28T10:06:26;3.22;;;2.92;;
63110;SDS011;49201;53.426;10.300;2023-02-28T10:09:02;3.03;;;2.20;;
63110;SDS011;49201;53.426;10.300;2023-02-28T10:11:34;3.53;;;2.50;;
63110;SDS011;49201;53.426;10.300;2023-02-28T10:14:05;3.03;;;2.72;;
63110;SDS011;49201;53.426;10.300;2023-02-28T10:16:38;2.97;;;2.65;;
63110;SDS011;49201;53.426;10.300;2023-02-28T10:19:16;2.72;;;2.53;;
63110;SDS011;49201;53.426;10.300;2023-02-28T10:21:45;3.28;;;2.80;;
63110;SDS011;49201;53.426;10.300;2023-02-28T10:27:01;3.05;;;2.45;;
63110;SDS011;49201;53.426;10.300;2023-02-28T10:29:36;3.38;;;2.58;;
63110;SDS011;49201;53.426;10.300;2023-02-28T10:32:05;4.68;;;3.03;;
63110;SDS011;49201;53.426;10.300;2023-02-28T10:34:30;3.20;;;2.50;;
63110;SDS011;49201;53.426;10.300;2023-02-28T10:36:56;3.47;;;2.10;;
63110;SDS011;49201;53.426;10.300;2023-02-28T10:42:18;1.85;;;1.65;;
63110;SDS011;49201;53.426;10.300;2023-02-28T10:44:46;1.50;;;1.20;;
63110;SDS011;49201;53.426;10.300;2023-02-28T10:47:15;1.50;;;1.40;;
63110;SDS011;49201;53.426;10.300;2023-02-28T10:49:49;1.25;;;1.15;;
63110;SDS011;49201;53.426;10.300;2023-02-28T10:52:33;2.03;;;1.27;;
63110;SDS011;49201;53.426;10.300;2023-02-28T10:55:16;2.15;;;1.30;;
63110;SDS011;49201;53.426;10.300;2023-02-28T10:57:49;2.70;;;1.42;;
63110;SDS011;49201;53.426;10.300;2023-02-28T11:00:24;1.83;;;1.45;;
63110;SDS011;49201;53.426;10.300;2023-02-28T11:02:50;1.20;;;1.10;;
63110;SDS011;49201;53.426;10.300;2023-02-28T11:08:19;1.70;;;1.33;;
63110;SDS011;49201;53.426;10.300;2023-02-28T11:10:48;1.25;;;1.05;;
63110;SDS011;49201;53.426;10.300;2023-02-28T11:13:20;2.42;;;1.40;;
63110;SDS011;49201;53.426;10.300;2023-02-28T11:15:53;2.80;;;1.38;;
63110;SDS011;49201;53.426;10.300;2023-02-28T11:18:23;2.45;;;1.35;;
63110;SDS011;49201;53.426;10.300;2023-02-28T11:21:04;2.03;;;1.63;;
63110;SDS011;49201;53.426;10.300;2023-02-28T11:23:30;2.75;;;1.52;;
63110;SDS011;49201;53.426;10.300;2023-02-28T11:26:00;1.40;;;1.30;;
63110;SDS011;49201;53.426;10.300;2023-02-28T11:28:30;1.52;;;1.40;;
63110;SDS011;49201;53.426;10.300;2023-02-28T11:33:42;1.90;;;1.58;;
63110;SDS011;49201;53.426;10.300;2023-02-28T11:38:46;2.72;;;1.63;;
63110;SDS011;49201;53.426;10.300;2023-02-28T11:44:31;1.98;;;1.77;;
63110;SDS011;49201;53.426;10.300;2023-02-28T11:55:26;2.22;;;1.85;;
63110;SDS011;49201;53.426;10.300;2023-02-28T12:00:32;1.98;;;1.63;;
63110;SDS011;49201;53.426;10.300;2023-02-28T12:19:48;1.77;;;1.67;;
63110;SDS011;49201;53.426;10.300;2023-02-28T12:22:40;1.83;;;1.65;;
63110;SDS011;49201;53.426;10.300;2023-02-28T12:27:43;1.85;;;1.50;;
63110;SDS011;49201;53.426;10.300;2023-02-28T12:30:46;2.97;;;1.70;;
63110;SDS011;49201;53.426;10.300;2023-02-28T12:33:08;1.65;;;1.50;;
63110;SDS011;49201;53.426;10.300;2023-02-28T12:35:59;1.88;;;1.60;;
63110;SDS011;49201;53.426;10.300;2023-02-28T12:41:05;1.70;;;1.45;;
63110;SDS011;49201;53.426;10.300;2023-02-28T12:43:38;2.55;;;1.48;;
63110;SDS011;49201;53.426;10.300;2023-02-28T12:46:10;3.42;;;1.52;;
63110;SDS011;49201;53.426;10.300;2023-02-28T12:48:59;3.65;;;2.03;;
63110;SDS011;49201;53.426;10.300;2023-02-28T12:51:29;1.80;;;1.63;;
63110;SDS011;49201;53.426;10.300;2023-02-28T12:54:07;2.28;;;1.60;;
63110;SDS011;49201;53.426;10.300;2023-02-28T12:56:38;2.88;;;1.80;;
63110;SDS011;49201;53.426;10.300;2023-02-28T12:59:21;1.77;;;1.67;;
63110;SDS011;49201;53.426;10.300;2023-02-28T13:08:03;2.07;;;1.67;;
63110;SDS011;49201;53.426;10.300;2023-02-28T13:10:52;2.10;;;1.60;;
63110;SDS011;49201;53.426;10.300;2023-02-28T13:13:21;2.33;;;1.73;;
63110;SDS011;49201;53.426;10.300;2023-02-28T13:16:05;3.30;;;2.10;;
63110;SDS011;49201;53.426;10.300;2023-02-28T13:18:39;2.20;;;1.73;;
63110;SDS011;49201;53.426;10.300;2023-02-28T13:26:21;2.10;;;1.90;;
63110;SDS011;49201;53.426;10.300;2023-02-28T13:29:04;1.93;;;1.70;;
63110;SDS011;49201;53.426;10.300;2023-02-28T13:34:33;2.80;;;2.10;;
63110;SDS011;49201;53.426;10.300;2023-02-28T13:39:53;3.73;;;2.10;;
63110;SDS011;49201;53.426;10.300;2023-02-28T14:01:36;3.07;;;2.20;;
63110;SDS011;49201;53.426;10.300;2023-02-28T14:07:01;2.40;;;2.00;;
63110;SDS011;49201;53.426;10.300;2023-02-28T14:09:29;2.80;;;2.00;;
63110;SDS011;49201;53.426;10.300;2023-02-28T14:15:26;3.43;;;2.40;;
63110;SDS011;49201;53.426;10.300;2023-02-28T14:17:54;3.17;;;2.43;;
63110;SDS011;49201;53.426;10.300;2023-02-28T14:20:20;4.10;;;1.87;;
63110;SDS011;49201;53.426;10.300;2023-02-28T14:38:23;2.70;;;2.10;;
63110;SDS011;49201;53.426;10.300;2023-02-28T14:40:55;4.23;;;2.93;;
63110;SDS011;49201;53.426;10.300;2023-02-28T14:43:27;3.73;;;2.13;;
63110;SDS011;49201;53.426;10.300;2023-02-28T14:45:57;3.73;;;2.60;;
63110;SDS011;49201;53.426;10.300;2023-02-28T14:48:24;3.03;;;2.47;;
63110;SDS011;49201;53.426;10.300;2023-02-28T14:51:01;2.97;;;2.30;;
63110;SDS011;49201;53.426;10.300;2023-02-28T14:53:28;2.80;;;2.33;;
63110;SDS011;49201;53.426;10.300;2023-02-28T14:55:56;2.60;;;2.37;;
63110;SDS011;49201;53.426;10.300;2023-02-28T14:58:31;3.37;;;2.10;;
63110;SDS011;49201;53.426;10.300;2023-02-28T15:00:59;2.50;;;2.10;;
63110;SDS011;49201;53.426;10.300;2023-02-28T15:03:37;2.80;;;1.90;;
63110;SDS011;49201;53.426;10.300;2023-02-28T15:06:05;2.40;;;1.80;;
63110;SDS011;49201;53.426;10.300;2023-02-28T15:08:37;3.33;;;2.20;;
63110;SDS011;49201;53.426;10.300;2023-02-28T15:11:04;3.80;;;1.80;;
63110;SDS011;49201;53.426;10.300;2023-02-28T15:16:23;3.67;;;1.93;;
63110;SDS011;49201;53.426;10.300;2023-02-28T15:18:52;3.60;;;1.70;;
63110;SDS011;49201;53.426;10.300;2023-02-28T15:21:23;2.33;;;1.63;;
63110;SDS011;49201;53.426;10.300;2023-02-28T15:23:55;2.30;;;2.00;;
63110;SDS011;49201;53.426;10.300;2023-02-28T15:26:33;2.00;;;1.77;;
63110;SDS011;49201;53.426;10.300;2023-02-28T15:29:06;2.50;;;1.90;;
63110;SDS011;49201;53.426;10.300;2023-02-28T15:31:43;2.63;;;2.07;;
63110;SDS011;49201;53.426;10.300;2023-02-28T15:34:52;2.17;;;1.73;;
63110;SDS011;49201;53.426;10.300;2023-02-28T15:37:01;1.43;;;1.33;;
63110;SDS011;49201;53.426;10.300;2023-02-28T15:39:27;3.37;;;1.80;;
63110;SDS011;49201;53.426;10.300;2023-02-28T15:42:09;3.43;;;2.00;;
63110;SDS011;49201;53.426;10.300;2023-02-28T15:44:43;3.63;;;1.50;;
63110;SDS011;49201;53.426;10.300;2023-02-28T15:47:16;1.67;;;1.50;;
63110;SDS011;49201;53.426;10.300;2023-02-28T15:49:55;2.70;;;1.43;;
63110;SDS011;49201;53.426;10.300;2023-02-28T15:52:40;1.90;;;1.30;;
63110;SDS011;49201;53.426;10.300;2023-02-28T15:55:18;1.87;;;1.70;;
63110;SDS011;49201;53.426;10.300;2023-02-28T15:57:47;2.93;;;1.70;;
63110;SDS011;49201;53.426;10.300;2023-02-28T16:00:18;5.43;;;1.50;;
63110;SDS011;49201;53.426;10.300;2023-02-28T16:02:45;2.73;;;1.50;;
63110;SDS011;49201;53.426;10.300;2023-02-28T16:07:40;2.13;;;1.60;;
63110;SDS011;49201;53.426;10.300;2023-02-28T16:10:08;2.53;;;1.67;;
63110;SDS011;49201;53.426;10.300;2023-02-28T16:12:36;4.50;;;1.40;;
63110;SDS011;49201;53.426;10.300;2023-02-28T16:15:07;2.00;;;1.20;;
63110;SDS011;49201;53.426;10.300;2023-02-28T16:17:41;2.43;;;1.80;;
63110;SDS011;49201;53.426;10.300;2023-02-28T16:20:17;1.50;;;1.40;;
63110;SDS011;49201;53.426;10.300;2023-02-28T16:22:50;1.60;;;1.40;;
63110;SDS011;49201;53.426;10.300;2023-02-28T16:25:17;2.63;;;1.60;;
63110;SDS011;49201;53.426;10.300;2023-02-28T16:27:45;3.60;;;1.47;;
63110;SDS011;49201;53.426;10.300;2023-02-28T16:30:22;2.63;;;1.50;;
63110;SDS011;49201;53.426;10.300;2023-02-28T16:32:49;3.63;;;1.70;;
63110;SDS011;49201;53.426;10.300;2023-02-28T16:35:16;3.50;;;1.63;;
63110;SDS011;49201;53.426;10.300;2023-02-28T16:37:43;3.73;;;2.10;;
63110;SDS011;49201;53.426;10.300;2023-02-28T16:40:16;4.30;;;2.43;;
63110;SDS011;49201;53.426;10.300;2023-02-28T16:42:45;4.93;;;2.53;;
63110;SDS011;49201;53.426;10.300;2023-02-28T16:45:17;3.00;;;2.00;;
63110;SDS011;49201;53.426;10.300;2023-02-28T16:47:44;3.33;;;2.13;;
63110;SDS011;49201;53.426;10.300;2023-02-28T16:50:17;5.67;;;2.93;;
63110;SDS011;49201;53.426;10.300;2023-02-28T16:52:46;4.03;;;2.50;;
63110;SDS011;49201;53.426;10.300;2023-02-28T16:55:11;4.37;;;2.53;;
63110;SDS011;49201;53.426;10.300;2023-02-28T16:57:37;2.97;;;2.17;;
63110;SDS011;49201;53.426;10.300;2023-02-28T17:00:05;3.43;;;1.80;;
63110;SDS011;49201;53.426;10.300;2023-02-28T17:02:33;2.47;;;1.70;;
63110;SDS011;49201;53.426;10.300;2023-02-28T17:04:59;4.83;;;1.53;;
63110;SDS011;49201;53.426;10.300;2023-02-28T17:07:24;4.60;;;1.30;;
63110;SDS011;49201;53.426;10.300;2023-02-28T17:09:49;2.77;;;1.50;;
63110;SDS011;49201;53.426;10.300;2023-02-28T17:12:15;3.70;;;1.53;;